Main page
METAR-TAF:

METAR-TAF

Airports :

Noto Airport

Wajima, Japan

latitude: 37-17-36N, longitude: 136-57-44E, elevation: 219 m

Current weather observation

The report was made 50 minutes ago, at 23:00 UTC
Wind 1 kt from variable directions
Temperature 2°C
Humidity 75%
Pressure 1029 hPa
Visibility 10 km or more
Few clouds at a height of 2000 ft
Broken clouds at a height of 4000 ft

METAR: RJNW 042300Z VRB01KT 9999 FEW020 BKN040 02/M02 Q1029

Time: 08:50 (23:50 UTC)


TAF: missing

Weather observations and forecasts of more than 4000 airports (METAR and TAF reports).

The available stations are represented by yellow and red dots on the map.

Hover mouse over dot to see the name of the station.

Then click to see weather observations and forecasts.

To change the map : click on the green buttons with a black cross to zoom in, on the green button with a dash to zoom out, or on the green arrows for adjacent maps.


METAR-TAF: